createdAt,value
2018-12-16T00:00:56.590Z,-1.10
2018-12-16T00:03:25.126Z,-1.10
2018-12-16T00:05:53.673Z,-1.10
2018-12-16T00:08:22.338Z,-1.10
2018-12-16T00:10:50.873Z,-1.10
2018-12-16T00:13:19.395Z,-1.10
2018-12-16T00:15:47.937Z,-1.10
2018-12-16T00:18:16.485Z,-1.10
2018-12-16T00:20:45.037Z,-1.10
2018-12-16T00:23:13.725Z,-1.10
2018-12-16T00:25:42.363Z,-1.10
2018-12-16T00:28:10.914Z,-1.10
2018-12-16T00:30:39.574Z,-1.10
2018-12-16T00:33:08.133Z,-1.10
2018-12-16T00:35:36.707Z,-1.00
2018-12-16T00:38:05.254Z,-1.00
2018-12-16T00:40:33.869Z,-0.90
2018-12-16T00:43:02.402Z,-0.90
2018-12-16T00:45:30.962Z,-0.80
2018-12-16T00:47:59.595Z,-0.80
2018-12-16T00:50:28.153Z,-0.80
2018-12-16T00:52:56.850Z,-0.80
2018-12-16T00:55:25.387Z,-0.80
2018-12-16T00:57:53.933Z,-0.80
2018-12-16T01:00:22.507Z,-0.90
2018-12-16T01:02:51.048Z,-0.90
2018-12-16T01:05:19.648Z,-1.00
2018-12-16T01:07:48.682Z,-1.00
2018-12-16T01:10:17.221Z,-1.00
2018-12-16T01:12:45.749Z,-1.00
2018-12-16T01:15:14.310Z,-1.00
2018-12-16T01:17:42.850Z,-1.10
2018-12-16T01:20:11.397Z,-1.00
2018-12-16T01:22:43.391Z,-1.00
2018-12-16T01:25:10.669Z,-1.00
2018-12-16T01:27:39.281Z,-1.00
2018-12-16T01:30:07.942Z,-1.00
2018-12-16T01:32:36.470Z,-1.00
2018-12-16T01:35:05.633Z,-1.00
2018-12-16T01:37:34.210Z,-1.00
2018-12-16T01:40:02.898Z,-1.00
2018-12-16T01:42:31.681Z,-1.00
2018-12-16T01:45:00.191Z,-1.00
2018-12-16T01:47:28.745Z,-1.00
2018-12-16T01:49:57.277Z,-1.00
2018-12-16T01:52:25.868Z,-1.00
2018-12-16T01:54:54.410Z,-1.00
2018-12-16T01:57:22.975Z,-0.90
2018-12-16T01:59:51.931Z,-0.90
2018-12-16T02:02:20.461Z,-0.90
2018-12-16T02:04:49.020Z,-0.90
2018-12-16T02:07:17.557Z,-1.00
2018-12-16T02:09:46.094Z,-0.90
2018-12-16T02:12:14.652Z,-0.90
2018-12-16T02:14:43.194Z,-0.90
2018-12-16T02:17:11.722Z,-0.80
2018-12-16T02:19:40.286Z,-0.80
2018-12-16T02:22:08.820Z,-0.80
2018-12-16T02:24:37.363Z,-0.80
2018-12-16T02:27:06.036Z,-0.70
2018-12-16T02:29:34.702Z,-0.70
2018-12-16T02:32:03.226Z,-0.70
2018-12-16T02:34:31.758Z,-0.70
2018-12-16T02:37:00.284Z,-0.70
2018-12-16T02:39:28.898Z,-0.70
2018-12-16T02:41:57.641Z,-0.70
2018-12-16T02:44:26.187Z,-0.70
2018-12-16T02:46:54.726Z,-0.70
2018-12-16T02:49:23.277Z,-0.70
2018-12-16T02:51:51.900Z,-0.60
2018-12-16T02:54:20.443Z,-0.60
2018-12-16T02:56:48.975Z,-0.70
2018-12-16T02:59:17.521Z,-0.70
2018-12-16T03:01:48.194Z,-0.70
2018-12-16T03:04:16.879Z,-0.70
2018-12-16T03:06:45.466Z,-0.70
2018-12-16T03:09:13.999Z,-0.70
2018-12-16T03:11:42.563Z,-0.70
2018-12-16T03:14:11.104Z,-0.70
2018-12-16T03:16:39.655Z,-0.70
2018-12-16T03:19:08.204Z,-0.70
2018-12-16T03:21:36.898Z,-0.70
2018-12-16T03:24:05.440Z,-0.60
2018-12-16T03:26:36.204Z,-0.60
2018-12-16T03:29:04.704Z,-0.60
2018-12-16T03:31:33.266Z,-0.50
2018-12-16T03:34:01.965Z,-0.60
2018-12-16T03:36:30.495Z,-0.60
2018-12-16T03:38:59.438Z,-0.60
2018-12-16T03:41:28.015Z,-0.60
2018-12-16T03:43:56.586Z,-0.60
2018-12-16T03:46:25.135Z,-0.70
2018-12-16T03:48:53.695Z,-0.70
2018-12-16T03:51:22.226Z,-0.80
2018-12-16T03:53:50.770Z,-0.80
2018-12-16T03:56:19.333Z,-0.80
2018-12-16T03:58:59.513Z,-0.80
2018-12-16T04:01:28.116Z,-0.70
2018-12-16T04:03:56.654Z,-0.80
2018-12-16T04:06:25.246Z,-0.80
2018-12-16T04:08:53.780Z,-0.80
2018-12-16T04:11:22.347Z,-0.70
2018-12-16T04:13:50.872Z,-0.70
2018-12-16T04:16:19.433Z,-0.70
2018-12-16T04:18:47.994Z,-0.70
2018-12-16T04:21:16.539Z,-0.80
2018-12-16T04:23:45.106Z,-0.70
2018-12-16T04:26:13.666Z,-0.60
2018-12-16T04:28:42.234Z,-0.60
2018-12-16T04:31:10.795Z,-0.50
2018-12-16T04:33:39.326Z,-0.50
2018-12-16T04:36:07.874Z,-0.50
2018-12-16T04:38:36.549Z,-0.40
2018-12-16T04:41:05.112Z,-0.40
2018-12-16T04:43:33.661Z,-0.40
2018-12-16T04:46:02.178Z,-0.50
2018-12-16T04:48:30.718Z,-0.60
2018-12-16T04:50:59.276Z,-0.60
2018-12-16T04:53:35.106Z,-0.70
2018-12-16T04:55:58.342Z,-0.70
2018-12-16T04:58:26.903Z,-0.80
2018-12-16T05:00:55.451Z,-0.80
2018-12-16T05:03:24.031Z,-0.70
2018-12-16T05:05:52.570Z,-0.70
2018-12-16T05:08:21.110Z,-0.70
2018-12-16T05:10:49.645Z,-0.80
2018-12-16T05:13:18.226Z,-0.80
2018-12-16T05:15:46.833Z,-0.70
2018-12-16T05:18:15.489Z,-0.70
2018-12-16T05:20:44.001Z,-0.70
2018-12-16T05:23:12.568Z,-0.80
2018-12-16T05:25:41.112Z,-0.80
2018-12-16T05:28:09.652Z,-0.80
2018-12-16T05:30:38.190Z,-0.80
2018-12-16T05:33:06.755Z,-0.80
2018-12-16T05:35:35.646Z,-0.80
2018-12-16T05:38:04.198Z,-0.80
2018-12-16T05:40:32.723Z,-0.80
2018-12-16T05:43:01.254Z,-0.70
2018-12-16T05:45:29.822Z,-0.70
2018-12-16T05:47:58.385Z,-0.70
2018-12-16T05:50:26.925Z,-0.70
2018-12-16T05:52:55.456Z,-0.70
2018-12-16T05:55:24.029Z,-0.80
2018-12-16T05:57:52.571Z,-0.80
2018-12-16T06:00:21.153Z,-0.70
2018-12-16T06:02:49.721Z,-0.70
2018-12-16T06:05:18.291Z,-0.60
2018-12-16T06:07:46.838Z,-0.50
2018-12-16T06:10:15.717Z,-0.50
2018-12-16T06:12:44.254Z,-0.50
2018-12-16T06:15:12.815Z,-0.40
2018-12-16T06:17:41.375Z,-0.30
2018-12-16T06:20:10.034Z,-0.20
2018-12-16T06:22:38.581Z,-0.20
2018-12-16T06:25:07.417Z,-0.20
2018-12-16T06:27:35.970Z,-0.20
2018-12-16T06:30:05.234Z,-0.20
2018-12-16T06:32:33.774Z,-0.20
2018-12-16T06:35:02.313Z,-0.20
2018-12-16T06:37:30.879Z,-0.10
2018-12-16T06:39:59.425Z,-0.10
2018-12-16T06:42:27.990Z,-0.10
2018-12-16T06:44:56.529Z,-0.10
2018-12-16T06:47:25.082Z,-0.20
2018-12-16T06:49:53.641Z,-0.30
2018-12-16T06:52:22.178Z,-0.40
2018-12-16T06:54:50.717Z,-0.30
2018-12-16T06:57:19.265Z,-0.30
2018-12-16T06:59:47.819Z,-0.30
2018-12-16T07:02:16.386Z,-0.40
2018-12-16T07:04:44.931Z,-0.50
2018-12-16T07:07:13.700Z,-0.50
2018-12-16T07:09:42.249Z,-0.50
2018-12-16T07:12:10.770Z,-0.30
2018-12-16T07:14:39.312Z,-0.20
2018-12-16T07:17:07.843Z,-0.10
2018-12-16T07:19:36.505Z,0.00
2018-12-16T07:22:05.124Z,0.10
2018-12-16T07:24:33.694Z,0.10
2018-12-16T07:27:02.230Z,0.00
2018-12-16T07:29:30.901Z,-0.10
2018-12-16T07:31:59.531Z,0.00
2018-12-16T07:34:28.142Z,0.00
2018-12-16T07:36:56.810Z,0.00
2018-12-16T07:39:25.363Z,0.00
2018-12-16T07:41:54.026Z,0.00
2018-12-16T07:44:22.739Z,-0.10
2018-12-16T07:46:51.348Z,-0.10
2018-12-16T07:49:19.899Z,-0.10
2018-12-16T07:51:48.462Z,-0.10
2018-12-16T07:54:17.029Z,-0.10
2018-12-16T07:56:45.559Z,-0.10
2018-12-16T07:59:14.111Z,0.00
2018-12-16T08:01:42.779Z,0.00
2018-12-16T08:04:11.401Z,0.00
2018-12-16T08:06:39.926Z,0.10
2018-12-16T08:09:08.467Z,0.10
2018-12-16T08:11:37.021Z,0.20
2018-12-16T08:14:05.546Z,0.30
2018-12-16T08:16:34.081Z,0.30
2018-12-16T08:19:06.986Z,0.40
2018-12-16T08:21:33.187Z,0.50
2018-12-16T08:24:01.727Z,0.50
2018-12-16T08:26:30.357Z,0.60
2018-12-16T08:28:58.922Z,0.60
2018-12-16T08:31:27.470Z,0.60
2018-12-16T08:33:56.013Z,0.60
2018-12-16T08:36:24.616Z,0.50
2018-12-16T08:38:53.255Z,0.50
2018-12-16T08:41:21.770Z,0.50
2018-12-16T08:43:50.291Z,0.50
2018-12-16T08:46:18.822Z,0.40
2018-12-16T08:48:47.366Z,0.40
2018-12-16T08:51:16.258Z,0.40
2018-12-16T08:53:44.794Z,0.40
2018-12-16T08:56:13.362Z,0.50
2018-12-16T08:58:41.903Z,0.50
2018-12-16T09:01:10.454Z,0.60
2018-12-16T09:03:39.005Z,0.70
2018-12-16T09:06:07.557Z,0.70
2018-12-16T09:08:36.110Z,0.80
2018-12-16T09:11:04.790Z,0.90
2018-12-16T09:13:33.357Z,1.00
2018-12-16T09:16:01.922Z,1.00
2018-12-16T09:18:30.454Z,1.00
2018-12-16T09:20:59.036Z,1.00
2018-12-16T09:23:27.573Z,1.00
2018-12-16T09:25:56.147Z,1.10
2018-12-16T09:28:24.718Z,1.20
2018-12-16T09:30:58.054Z,1.30
2018-12-16T09:33:23.821Z,1.40
2018-12-16T09:35:52.378Z,1.40
2018-12-16T09:38:20.910Z,1.40
2018-12-16T09:40:49.470Z,1.40
2018-12-16T09:43:18.018Z,1.40
2018-12-16T09:45:49.558Z,1.40
2018-12-16T09:48:17.090Z,1.40
2018-12-16T09:50:45.660Z,1.50
2018-12-16T09:53:14.198Z,1.50
2018-12-16T09:55:42.731Z,1.50
2018-12-16T09:58:11.290Z,1.40
2018-12-16T10:00:39.827Z,1.40
2018-12-16T10:03:08.415Z,1.40
2018-12-16T10:05:36.973Z,1.30
2018-12-16T10:08:05.542Z,1.30
2018-12-16T10:10:34.097Z,1.40
2018-12-16T10:13:02.618Z,1.50
2018-12-16T10:15:31.151Z,1.70
2018-12-16T10:17:59.706Z,1.80
2018-12-16T10:20:28.262Z,1.90
2018-12-16T10:22:56.781Z,1.90
2018-12-16T10:25:25.309Z,1.80
2018-12-16T10:27:53.847Z,1.80
2018-12-16T10:30:22.413Z,1.90
2018-12-16T10:32:50.981Z,2.10
2018-12-16T10:35:19.510Z,2.10
2018-12-16T10:37:48.059Z,2.20
2018-12-16T10:40:16.602Z,2.20
2018-12-16T10:42:45.379Z,2.20
2018-12-16T10:45:14.050Z,2.30
2018-12-16T10:47:42.593Z,2.30
2018-12-16T10:50:11.262Z,2.40
2018-12-16T10:52:39.790Z,2.50
2018-12-16T10:55:08.561Z,2.70
2018-12-16T10:57:37.090Z,2.80
2018-12-16T11:00:08.449Z,2.80
2018-12-16T11:02:36.986Z,2.80
2018-12-16T11:05:05.840Z,2.90
2018-12-16T11:07:34.398Z,2.90
2018-12-16T11:10:03.049Z,3.00
2018-12-16T11:12:31.730Z,3.00
2018-12-16T11:15:00.262Z,3.10
2018-12-16T11:17:28.790Z,3.20
2018-12-16T11:19:57.326Z,3.10
2018-12-16T11:22:25.866Z,2.90
2018-12-16T11:24:54.610Z,2.90
2018-12-16T11:27:23.191Z,2.80
2018-12-16T11:29:51.732Z,2.80
2018-12-16T11:32:20.370Z,2.70
2018-12-16T11:34:48.923Z,2.60
2018-12-16T11:37:17.454Z,2.60
2018-12-16T11:39:45.989Z,2.50
2018-12-16T11:42:14.526Z,2.50
2018-12-16T11:44:43.051Z,2.50
2018-12-16T11:47:11.586Z,2.50
2018-12-16T11:49:40.109Z,2.50
2018-12-16T11:52:08.651Z,2.50
2018-12-16T11:54:37.171Z,2.50
2018-12-16T11:57:05.740Z,2.50
2018-12-16T11:59:34.272Z,2.60
2018-12-16T12:02:02.820Z,2.50
2018-12-16T12:04:31.343Z,2.50
2018-12-16T12:06:59.887Z,2.50
2018-12-16T12:09:28.439Z,2.40
2018-12-16T12:11:56.990Z,2.40
2018-12-16T12:14:25.511Z,2.40
2018-12-16T12:16:54.057Z,2.40
2018-12-16T12:19:22.789Z,2.40
2018-12-16T12:21:51.305Z,2.40
2018-12-16T12:24:19.852Z,2.50
2018-12-16T12:26:48.369Z,2.50
2018-12-16T12:29:16.921Z,2.50
2018-12-16T12:31:45.455Z,2.60
2018-12-16T12:34:14.134Z,2.60
2018-12-16T12:36:42.666Z,2.60
2018-12-16T12:39:11.207Z,2.60
2018-12-16T12:41:39.738Z,2.60
2018-12-16T12:44:08.271Z,2.70
2018-12-16T12:46:36.794Z,2.80
2018-12-16T12:49:05.322Z,2.80
2018-12-16T12:51:33.862Z,2.90
2018-12-16T12:54:02.374Z,2.90
2018-12-16T12:56:30.889Z,2.90
2018-12-16T12:58:59.472Z,2.90
2018-12-16T13:01:28.054Z,3.00
2018-12-16T13:03:56.621Z,2.90
2018-12-16T13:06:25.146Z,2.90
2018-12-16T13:08:53.705Z,2.90
2018-12-16T13:11:22.233Z,3.00
2018-12-16T13:13:50.822Z,2.90
2018-12-16T13:16:19.354Z,2.90
2018-12-16T13:18:47.883Z,2.90
2018-12-16T13:21:16.414Z,3.00
2018-12-16T13:23:44.946Z,3.00
2018-12-16T13:26:13.486Z,3.10
2018-12-16T13:28:42.021Z,3.20
2018-12-16T13:31:10.550Z,3.30
2018-12-16T13:33:39.086Z,3.40
2018-12-16T13:36:10.325Z,3.40
2018-12-16T13:38:38.869Z,3.40
2018-12-16T13:41:07.375Z,3.50
2018-12-16T13:43:35.940Z,3.60
2018-12-16T13:46:04.488Z,3.70
2018-12-16T13:48:33.015Z,3.70
2018-12-16T13:51:01.535Z,3.80
2018-12-16T13:53:30.056Z,3.80
2018-12-16T13:55:58.593Z,3.80
2018-12-16T13:58:27.110Z,3.70
2018-12-16T14:00:55.721Z,3.60
2018-12-16T14:03:24.265Z,3.60
2018-12-16T14:05:52.914Z,3.40
2018-12-16T14:08:21.430Z,3.30
2018-12-16T14:10:49.978Z,3.30
2018-12-16T14:13:18.507Z,3.30
2018-12-16T14:15:52.255Z,3.30
2018-12-16T14:18:17.601Z,3.20
2018-12-16T14:20:46.126Z,3.20
2018-12-16T14:23:14.674Z,3.20
2018-12-16T14:25:47.922Z,3.20
2018-12-16T14:28:13.714Z,3.10
2018-12-16T14:30:42.270Z,3.10
2018-12-16T14:33:10.830Z,3.10
2018-12-16T14:35:39.363Z,3.10
2018-12-16T14:38:08.235Z,3.10
2018-12-16T14:40:36.762Z,3.20
2018-12-16T14:43:05.318Z,3.20
2018-12-16T14:45:33.858Z,3.20
2018-12-16T14:48:02.384Z,3.20
2018-12-16T14:50:30.939Z,3.20
2018-12-16T14:52:59.490Z,3.20
2018-12-16T14:55:28.002Z,3.30
2018-12-16T14:57:56.538Z,3.30
2018-12-16T15:00:25.074Z,3.40
2018-12-16T15:02:53.614Z,3.40
2018-12-16T15:05:22.137Z,3.40
2018-12-16T15:07:51.590Z,3.50
2018-12-16T15:10:20.159Z,3.60
2018-12-16T15:12:48.712Z,3.60
2018-12-16T15:15:17.870Z,3.70
2018-12-16T15:17:46.402Z,3.70
2018-12-16T15:20:14.934Z,3.80
2018-12-16T15:22:43.473Z,3.80
2018-12-16T15:25:12.106Z,3.80
2018-12-16T15:27:40.646Z,3.80
2018-12-16T15:30:10.215Z,3.80
2018-12-16T15:32:38.783Z,3.80
2018-12-16T15:35:07.535Z,3.90
2018-12-16T15:37:36.073Z,3.90
2018-12-16T15:40:06.406Z,4.00
2018-12-16T15:42:35.107Z,4.10
2018-12-16T15:45:03.911Z,4.10
2018-12-16T15:47:32.490Z,4.20
2018-12-16T15:50:01.023Z,4.20
2018-12-16T15:52:29.608Z,4.30
2018-12-16T15:54:58.226Z,4.40
2018-12-16T15:57:26.776Z,4.40
2018-12-16T15:59:55.303Z,4.40
2018-12-16T16:02:23.813Z,4.40
2018-12-16T16:04:52.354Z,4.40
2018-12-16T16:07:20.889Z,4.40
2018-12-16T16:09:49.418Z,4.40
2018-12-16T16:12:17.943Z,4.40
2018-12-16T16:14:46.479Z,4.50
2018-12-16T16:17:14.990Z,4.50
2018-12-16T16:19:43.738Z,4.50
2018-12-16T16:22:12.290Z,4.50
2018-12-16T16:24:41.221Z,4.50
2018-12-16T16:27:09.746Z,4.60
2018-12-16T16:29:38.353Z,4.60
2018-12-16T16:32:06.906Z,4.60
2018-12-16T16:34:35.444Z,4.60
2018-12-16T16:37:03.994Z,4.60
2018-12-16T16:39:32.506Z,4.70
2018-12-16T16:42:01.040Z,4.60
2018-12-16T16:44:29.590Z,4.60
2018-12-16T16:46:58.098Z,4.60
2018-12-16T16:49:26.729Z,4.70
2018-12-16T16:51:55.263Z,4.70
2018-12-16T16:54:23.805Z,4.70
2018-12-16T16:56:52.338Z,4.60
2018-12-16T16:59:20.895Z,4.60
2018-12-16T17:01:49.438Z,4.60
2018-12-16T17:04:17.971Z,4.60
2018-12-16T17:06:46.526Z,4.60
2018-12-16T17:09:15.062Z,4.60
2018-12-16T17:11:43.597Z,4.70
2018-12-16T17:14:12.258Z,4.70
2018-12-16T17:16:40.837Z,4.70
2018-12-16T17:19:09.912Z,4.70
2018-12-16T17:21:39.570Z,4.70
2018-12-16T17:24:08.133Z,4.70
2018-12-16T17:26:36.991Z,4.70
2018-12-16T17:29:05.625Z,4.70
2018-12-16T17:31:34.150Z,4.60
2018-12-16T17:34:02.722Z,4.60
2018-12-16T17:36:31.242Z,4.60
2018-12-16T17:38:59.777Z,4.60
2018-12-16T17:41:28.314Z,4.60
2018-12-16T17:43:56.838Z,4.60
2018-12-16T17:46:25.362Z,4.70
2018-12-16T17:48:53.898Z,4.70
2018-12-16T17:51:22.454Z,4.60
2018-12-16T17:53:51.022Z,4.50
2018-12-16T17:56:19.538Z,4.50
2018-12-16T17:58:48.066Z,4.50
2018-12-16T18:01:16.582Z,4.60
2018-12-16T18:03:45.112Z,4.60
2018-12-16T18:06:13.654Z,4.60
2018-12-16T18:08:42.189Z,4.60
2018-12-16T18:11:10.738Z,4.50
2018-12-16T18:13:39.294Z,4.50
2018-12-16T18:16:07.838Z,4.50
2018-12-16T18:18:36.482Z,4.50
2018-12-16T18:21:05.153Z,4.50
2018-12-16T18:23:33.679Z,4.60
2018-12-16T18:26:02.222Z,4.60
2018-12-16T18:28:30.802Z,4.60
2018-12-16T18:30:59.317Z,4.60
2018-12-16T18:33:28.103Z,4.60
2018-12-16T18:35:56.640Z,4.60
2018-12-16T18:38:25.175Z,4.60
2018-12-16T18:40:53.715Z,4.50
2018-12-16T18:43:22.238Z,4.40
2018-12-16T18:45:50.773Z,4.30
2018-12-16T18:48:19.296Z,4.20
2018-12-16T18:50:48.078Z,4.10
2018-12-16T18:53:16.622Z,4.00
2018-12-16T18:55:45.158Z,4.00
2018-12-16T18:58:13.693Z,4.00
2018-12-16T19:00:42.231Z,4.00
2018-12-16T19:03:10.811Z,4.00
2018-12-16T19:05:39.354Z,4.00
2018-12-16T19:08:07.874Z,4.00
2018-12-16T19:10:36.418Z,4.00
2018-12-16T19:13:04.958Z,4.10
2018-12-16T19:15:33.507Z,4.10
2018-12-16T19:18:02.087Z,4.10
2018-12-16T19:20:30.684Z,4.10
2018-12-16T19:22:59.227Z,4.10
2018-12-16T19:25:27.750Z,4.00
2018-12-16T19:27:56.278Z,4.00
2018-12-16T19:30:24.822Z,3.90
2018-12-16T19:32:53.363Z,3.90
2018-12-16T19:35:21.987Z,3.90
2018-12-16T19:37:50.530Z,3.90
2018-12-16T19:40:19.070Z,3.90
2018-12-16T19:42:47.634Z,3.90
2018-12-16T19:45:16.180Z,3.90
2018-12-16T19:47:49.579Z,3.90
2018-12-16T19:50:15.251Z,3.90
2018-12-16T19:52:43.822Z,4.00
2018-12-16T19:55:12.778Z,4.00
2018-12-16T19:57:41.314Z,4.00
2018-12-16T20:00:10.074Z,4.00
2018-12-16T20:02:38.638Z,4.00
2018-12-16T20:05:12.257Z,4.00
2018-12-16T20:07:40.834Z,4.00
2018-12-16T20:10:09.410Z,4.00
2018-12-16T20:12:37.945Z,4.00
2018-12-16T20:15:07.073Z,4.00
2018-12-16T20:17:36.080Z,4.00
2018-12-16T20:20:05.143Z,4.10
2018-12-16T20:22:33.680Z,4.10
2018-12-16T20:25:02.214Z,4.20
2018-12-16T20:27:30.786Z,4.20
2018-12-16T20:29:59.327Z,4.20
2018-12-16T20:32:27.858Z,4.20
2018-12-16T20:34:56.383Z,4.20
2018-12-16T20:37:24.946Z,4.30
2018-12-16T20:39:53.503Z,4.30
2018-12-16T20:42:22.038Z,4.30
2018-12-16T20:44:50.706Z,4.30
2018-12-16T20:47:19.230Z,4.40
2018-12-16T20:49:47.762Z,4.30
2018-12-16T20:52:16.282Z,4.40
2018-12-16T20:54:44.856Z,4.40
2018-12-16T20:57:18.799Z,4.40
2018-12-16T20:59:43.954Z,4.40
2018-12-16T21:02:12.490Z,4.40
2018-12-16T21:04:41.054Z,4.40
2018-12-16T21:07:09.584Z,4.40
2018-12-16T21:09:38.107Z,4.40
2018-12-16T21:12:10.939Z,4.40
2018-12-16T21:14:44.806Z,4.50
2018-12-16T21:17:18.562Z,4.40
2018-12-16T21:19:47.086Z,4.40
2018-12-16T21:22:15.634Z,4.40
2018-12-16T21:24:44.182Z,4.30
2018-12-16T21:27:12.854Z,4.40
2018-12-16T21:29:41.368Z,4.40
2018-12-16T21:32:09.899Z,4.40
2018-12-16T21:34:38.406Z,4.50
2018-12-16T21:37:06.970Z,4.60
2018-12-16T21:39:35.523Z,4.60
2018-12-16T21:42:04.048Z,4.60
2018-12-16T21:44:32.618Z,4.60
2018-12-16T21:47:01.167Z,4.50
2018-12-16T21:49:29.685Z,4.60
2018-12-16T21:51:58.210Z,4.60
2018-12-16T21:54:26.741Z,4.70
2018-12-16T21:56:55.288Z,4.70
2018-12-16T21:59:23.945Z,4.80
2018-12-16T22:01:52.458Z,4.80
2018-12-16T22:04:21.125Z,4.80
2018-12-16T22:06:49.657Z,4.70
2018-12-16T22:09:18.202Z,4.70
2018-12-16T22:11:46.735Z,4.60
2018-12-16T22:14:15.260Z,4.60
2018-12-16T22:16:43.798Z,4.60
2018-12-16T22:19:12.326Z,4.60
2018-12-16T22:21:40.863Z,4.70
2018-12-16T22:24:09.411Z,4.80
2018-12-16T22:26:37.950Z,4.80
2018-12-16T22:29:06.474Z,4.80
2018-12-16T22:31:35.012Z,4.70
2018-12-16T22:34:03.529Z,4.80
2018-12-16T22:36:32.077Z,4.80
2018-12-16T22:39:00.621Z,4.80
2018-12-16T22:41:29.154Z,4.80
2018-12-16T22:43:57.913Z,4.70
2018-12-16T22:46:26.810Z,4.70
2018-12-16T22:48:55.361Z,4.70
2018-12-16T22:51:23.924Z,4.60
2018-12-16T22:53:52.462Z,4.70
2018-12-16T22:56:20.985Z,4.70
2018-12-16T22:58:54.344Z,4.80
2018-12-16T23:01:21.134Z,4.80
2018-12-16T23:03:49.661Z,4.80
2018-12-16T23:06:18.200Z,4.80
2018-12-16T23:08:46.710Z,4.80
2018-12-16T23:11:15.254Z,4.80
2018-12-16T23:13:43.813Z,4.80
2018-12-16T23:16:12.366Z,4.70
2018-12-16T23:18:41.126Z,4.70
2018-12-16T23:21:11.181Z,4.70
2018-12-16T23:23:39.869Z,4.70
2018-12-16T23:26:08.470Z,4.70
2018-12-16T23:28:37.013Z,4.70
2018-12-16T23:31:05.548Z,4.70
2018-12-16T23:33:34.079Z,4.80
2018-12-16T23:36:02.638Z,4.80
2018-12-16T23:38:31.170Z,4.80
2018-12-16T23:40:59.702Z,4.80
2018-12-16T23:43:28.263Z,4.80
2018-12-16T23:45:56.806Z,4.80
2018-12-16T23:48:25.313Z,4.80
2018-12-16T23:50:53.853Z,4.80
2018-12-16T23:53:22.370Z,4.80
2018-12-16T23:55:50.921Z,4.70
2018-12-16T23:58:19.477Z,4.70
